Time;durP1;ratioP1;P1;durP2;ratioP2;P2;SDS_P1;SDS_P2;PMS_P1;PMS_P2;Temp;Humidity;BMP_temperature;BMP_pressure;BME280_temperature;BME280_humidity;BME280_pressure;Samples;Min_cycle;Max_cycle;Signal;HPM_P1;HPM_P2
2021/04/11 00:00:46;;;;;;;38.87;29.43;;;6.70;99.90;;;;;;5093497;28;20177;-77
2021/04/11 00:03:15;;;;;;;50.07;33.77;;;6.70;99.90;;;;;;5094359;28;20185;-77
2021/04/11 00:05:41;;;;;;;48.00;33.30;;;6.70;99.90;;;;;;5095117;28;20181;-77
2021/04/11 00:08:09;;;;;;;43.60;30.70;;;6.70;99.90;;;;;;5094734;28;20407;-77
2021/04/11 00:10:37;;;;;;;49.17;32.57;;;6.70;99.90;;;;;;5095102;28;20419;-77
2021/04/11 00:13:08;;;;;;;44.47;29.33;;;6.70;99.90;;;;;;5094863;28;20423;-77
2021/04/11 00:15:34;;;;;;;46.13;33.73;;;6.70;99.90;;;;;;5094104;28;20459;-77
2021/04/11 00:18:00;;;;;;;46.13;31.60;;;6.70;99.90;;;;;;5094856;28;20428;-77
2021/04/11 00:20:26;;;;;;;52.83;33.53;;;6.70;99.90;;;;;;5095265;28;20755;-77
2021/04/11 00:22:51;;;;;;;47.57;32.80;;;6.70;99.90;;;;;;5094636;28;20197;-77
2021/04/11 00:25:30;;;;;;;47.70;34.30;;;6.70;99.90;;;;;;5094629;28;20453;-77
2021/04/11 00:27:57;;;;;;;49.10;32.03;;;6.70;99.90;;;;;;5094130;28;20166;-77
2021/04/11 00:30:23;;;;;;;42.47;32.93;;;6.70;99.90;;;;;;5093925;28;20407;-77
2021/04/11 00:32:49;;;;;;;47.53;32.10;;;6.70;99.90;;;;;;5093927;28;20791;-77
2021/04/11 00:35:16;;;;;;;43.27;30.37;;;6.70;99.90;;;;;;5094196;28;20201;-77
2021/04/11 00:37:42;;;;;;;48.70;34.47;;;6.70;99.90;;;;;;5093754;28;20438;-77
2021/04/11 00:40:20;;;;;;;50.97;33.70;;;6.70;99.90;;;;;;5092577;28;20912;-77
2021/04/11 00:42:50;;;;;;;52.00;34.23;;;6.70;99.90;;;;;;5093477;28;20594;-77
2021/04/11 00:45:29;;;;;;;45.67;31.83;;;6.70;99.90;;;;;;5093381;28;20391;-77
2021/04/11 00:47:55;;;;;;;51.10;35.03;;;6.70;99.90;;;;;;5093694;28;20411;-77
2021/04/11 00:50:22;;;;;;;46.03;32.60;;;6.70;99.90;;;;;;5093612;28;20411;-77
2021/04/11 00:52:48;;;;;;;54.37;34.70;;;6.70;99.90;;;;;;5093656;28;20427;-77
2021/04/11 00:55:16;;;;;;;48.23;35.60;;;6.70;99.90;;;;;;5093331;28;20451;-76
2021/04/11 00:57:43;;;;;;;47.37;36.20;;;6.70;99.90;;;;;;5093230;28;20411;-76
2021/04/11 01:00:09;;;;;;;47.87;36.50;;;6.70;99.90;;;;;;5093724;28;20477;-77
2021/04/11 01:02:38;;;;;;;54.70;36.53;;;6.70;99.90;;;;;;5093690;28;20432;-77
2021/04/11 01:05:34;;;;;;;49.57;36.13;;;6.70;99.90;;;;;;5094559;28;20407;-77
2021/04/11 01:08:10;;;;;;;52.67;36.87;;;6.70;99.90;;;;;;5091359;28;20432;-76
2021/04/11 01:10:39;;;;;;;55.87;37.50;;;6.70;99.90;;;;;;5094807;28;20450;-77
2021/04/11 01:13:04;;;;;;;62.50;36.93;;;6.70;99.90;;;;;;5093446;28;20923;-77
2021/04/11 01:15:33;;;;;;;52.90;36.53;;;6.70;99.90;;;;;;5092707;28;20508;-76
2021/04/11 01:17:59;;;;;;;59.00;40.50;;;6.70;99.90;;;;;;5092921;28;20196;-77
2021/04/11 01:20:27;;;;;;;59.70;38.57;;;6.70;99.90;;;;;;5093370;28;20408;-77
2021/04/11 01:23:16;;;;;;;56.03;43.03;;;6.70;99.90;;;;;;5091441;28;20982;-77
2021/04/11 01:25:43;;;;;;;56.90;39.70;;;6.70;99.90;;;;;;5090279;28;20404;-76
2021/04/11 01:28:14;;;;;;;55.77;40.10;;;6.70;99.90;;;;;;5091592;28;20415;-76
2021/04/11 01:30:41;;;;;;;61.33;40.50;;;6.70;99.90;;;;;;5093713;28;20418;-77
2021/04/11 01:33:16;;;;;;;64.60;41.67;;;6.70;99.90;;;;;;5093378;28;20569;-77
2021/04/11 01:35:42;;;;;;;61.20;41.50;;;6.70;99.90;;;;;;5092640;28;20457;-77
2021/04/11 01:38:09;;;;;;;58.63;41.87;;;6.70;99.90;;;;;;5092311;28;20404;-77
2021/04/11 01:40:41;;;;;;;62.17;43.10;;;6.70;99.90;;;;;;5092672;28;20408;-77
2021/04/11 01:43:08;;;;;;;54.97;39.17;;;6.70;99.90;;;;;;5092512;28;20462;-77
2021/04/11 01:45:37;;;;;;;56.30;39.90;;;6.70;99.90;;;;;;5092570;28;20415;-76
2021/04/11 01:48:03;;;;;;;62.90;43.07;;;6.70;99.90;;;;;;5092003;28;20466;-77
2021/04/11 01:50:29;;;;;;;64.23;43.93;;;6.70;99.90;;;;;;5092151;28;20919;-77
2021/04/11 01:52:57;;;;;;;59.30;41.90;;;6.70;99.90;;;;;;5092040;28;20496;-76
2021/04/11 01:55:24;;;;;;;61.97;42.07;;;6.70;99.90;;;;;;5092289;28;20823;-76
2021/04/11 01:57:54;;;;;;;58.20;41.20;;;6.70;99.90;;;;;;5092099;28;20899;-76
2021/04/11 02:00:44;;;;;;;67.80;44.83;;;6.70;99.90;;;;;;5091971;28;20412;-76
2021/04/11 02:03:14;;;;;;;59.57;43.10;;;6.70;99.90;;;;;;5091930;28;21090;-76
2021/04/11 02:05:42;;;;;;;61.73;43.77;;;6.70;99.90;;;;;;5091987;28;20408;-76
2021/04/11 02:08:09;;;;;;;62.80;45.03;;;6.70;99.90;;;;;;5091836;28;20808;-76
2021/04/11 02:10:39;;;;;;;56.17;42.57;;;6.70;99.90;;;;;;5091884;28;20435;-76
2021/04/11 02:13:07;;;;;;;73.27;42.50;;;6.70;99.90;;;;;;5091802;28;20426;-76
2021/04/11 02:15:35;;;;;;;68.13;46.90;;;6.70;99.90;;;;;;5094145;28;20981;-78
2021/04/11 02:18:02;;;;;;;58.27;40.43;;;6.70;99.90;;;;;;5094423;28;20407;-76
2021/04/11 02:20:30;;;;;;;75.53;46.53;;;6.70;99.90;;;;;;5094907;28;20457;-77
2021/04/11 02:22:56;;;;;;;75.47;47.67;;;6.70;99.90;;;;;;5095228;28;20423;-77
2021/04/11 02:25:26;;;;;;;65.27;46.00;;;6.70;99.90;;;;;;5093461;28;20809;-75
2021/04/11 02:27:53;;;;;;;74.20;44.77;;;6.70;99.90;;;;;;5092625;28;20410;-77
2021/04/11 02:30:23;;;;;;;73.07;44.70;;;6.70;99.90;;;;;;5094879;28;20400;-77
2021/04/11 02:32:51;;;;;;;68.60;45.00;;;6.70;99.90;;;;;;5092388;28;20442;-77
2021/04/11 02:35:22;;;;;;;67.80;47.60;;;6.70;99.90;;;;;;5093601;28;20509;-77
2021/04/11 02:37:53;;;;;;;68.17;46.07;;;6.70;99.90;;;;;;5092873;28;20400;-77
2021/04/11 02:40:37;;;;;;;80.23;50.83;;;6.70;99.90;;;;;;5094427;28;20408;-77
2021/04/11 02:43:06;;;;;;;67.80;47.50;;;6.70;99.90;;;;;;5092723;28;20426;-75
2021/04/11 02:45:35;;;;;;;74.90;49.97;;;6.70;99.90;;;;;;5092572;28;20412;-75
2021/04/11 02:48:02;;;;;;;73.97;47.30;;;6.70;99.90;;;;;;5091271;28;20407;-75
2021/04/11 02:50:31;;;;;;;71.40;50.33;;;6.70;99.90;;;;;;5091597;28;20466;-76
2021/04/11 02:53:17;;;;;;;77.83;52.70;;;6.70;99.90;;;;;;5091770;28;20431;-76
2021/04/11 02:55:43;;;;;;;72.90;49.50;;;6.70;99.90;;;;;;5091522;28;20455;-76
2021/04/11 02:58:11;;;;;;;67.50;47.00;;;6.70;99.90;;;;;;5091238;28;20499;-75
2021/04/11 03:00:44;;;;;;;78.47;51.33;;;6.70;99.90;;;;;;5094969;28;20406;-75
2021/04/11 03:03:10;;;;;;;72.20;47.43;;;6.80;99.90;;;;;;5100247;28;20446;-77
2021/04/11 03:05:36;;;;;;;80.70;49.77;;;6.70;99.90;;;;;;5095860;28;20407;-77
2021/04/11 03:08:05;;;;;;;70.33;47.77;;;6.70;99.90;;;;;;5098206;28;20180;-77
2021/04/11 03:11:06;;;;;;;83.43;51.27;;;6.80;99.90;;;;;;5095491;28;20408;-76
2021/04/11 03:13:34;;;;;;;69.77;47.03;;;6.80;99.90;;;;;;5095274;28;20403;-77
2021/04/11 03:16:00;;;;;;;73.33;48.63;;;6.70;99.90;;;;;;5094640;28;20439;-76
2021/04/11 03:18:26;;;;;;;80.93;50.27;;;6.70;99.90;;;;;;5093870;28;20916;-76
2021/04/11 03:20:54;;;;;;;72.17;50.50;;;6.70;99.90;;;;;;5095144;28;20410;-76
2021/04/11 03:23:20;;;;;;;79.40;49.10;;;6.70;99.90;;;;;;5095093;28;20419;-75
2021/04/11 03:25:49;;;;;;;68.87;46.10;;;6.70;99.90;;;;;;5095126;28;20403;-76
2021/04/11 03:28:19;;;;;;;84.33;53.87;;;6.70;99.90;;;;;;5094834;28;20460;-76
2021/04/11 03:31:04;;;;;;;78.03;51.07;;;6.70;99.90;;;;;;5095210;28;20419;-76
2021/04/11 03:33:33;;;;;;;70.60;48.00;;;6.80;99.90;;;;;;5094688;28;20431;-76
2021/04/11 03:36:00;;;;;;;75.83;51.63;;;6.80;99.90;;;;;;5094647;28;20522;-76
2021/04/11 03:38:28;;;;;;;79.60;50.97;;;6.80;99.90;;;;;;5094459;28;20503;-76
2021/04/11 03:40:57;;;;;;;80.10;51.23;;;6.80;99.90;;;;;;5094494;28;20490;-75
2021/04/11 03:43:36;;;;;;;77.20;49.57;;;6.80;99.90;;;;;;5094558;28;20467;-76
2021/04/11 03:46:09;;;;;;;83.83;52.83;;;6.80;99.90;;;;;;5094033;28;20404;-75
2021/04/11 03:49:05;;;;;;;74.37;50.67;;;6.80;99.90;;;;;;5094948;28;20407;-77
2021/04/11 03:51:36;;;;;;;83.10;52.87;;;6.80;99.90;;;;;;5092505;28;20439;-76
2021/04/11 03:54:10;;;;;;;85.63;53.47;;;6.80;99.90;;;;;;5094174;28;20455;-77
2021/04/11 03:56:41;;;;;;;81.03;52.20;;;6.80;99.90;;;;;;5093949;28;20396;-76
2021/04/11 03:59:08;;;;;;;82.93;52.60;;;6.80;99.90;;;;;;5094250;28;20400;-76
2021/04/11 04:01:43;;;;;;;71.80;50.73;;;6.80;99.90;;;;;;5094165;28;20423;-76
2021/04/11 04:04:16;;;;;;;81.73;53.10;;;6.90;99.90;;;;;;5094089;28;20448;-77
2021/04/11 04:07:08;;;;;;;72.43;50.37;;;6.80;99.90;;;;;;5093931;28;20410;-77
2021/04/11 04:09:35;;;;;;;75.17;52.73;;;6.80;99.90;;;;;;5093903;28;20419;-77
2021/04/11 04:12:10;;;;;;;89.63;54.27;;;6.80;99.90;;;;;;5093962;28;20430;-77
2021/04/11 04:14:57;;;;;;;82.80;54.37;;;6.80;99.90;;;;;;5094367;28;20494;-77
2021/04/11 04:17:47;;;;;;;79.37;51.27;;;6.80;99.90;;;;;;5094011;28;20408;-76
2021/04/11 04:20:20;;;;;;;75.67;50.30;;;6.80;99.90;;;;;;5093951;28;20506;-76
2021/04/11 04:23:00;;;;;;;74.83;49.90;;;6.80;99.90;;;;;;5093453;28;20514;-76
2021/04/11 04:25:45;;;;;;;77.53;51.40;;;6.80;99.90;;;;;;5093921;28;20460;-77
2021/04/11 04:28:19;;;;;;;80.30;54.00;;;6.80;99.90;;;;;;5093688;28;20434;-76
2021/04/11 04:30:58;;;;;;;82.63;52.70;;;6.80;99.90;;;;;;5093975;28;20403;-76
2021/04/11 04:33:50;;;;;;;84.07;52.90;;;6.80;99.90;;;;;;5093647;28;20435;-76
2021/04/11 04:36:40;;;;;;;78.53;52.60;;;6.80;99.90;;;;;;5091967;28;20830;-76
2021/04/11 04:39:26;;;;;;;70.20;50.00;;;6.80;99.90;;;;;;5093442;28;20388;-76
2021/04/11 04:42:13;;;;;;;78.00;51.07;;;6.80;99.90;;;;;;5093438;28;20446;-76
2021/04/11 04:45:17;;;;;;;78.07;49.63;;;6.80;99.90;;;;;;5093880;28;20403;-76
2021/04/11 04:47:55;;;;;;;75.07;50.27;;;6.90;99.90;;;;;;5075127;28;20510;-76
2021/04/11 04:50:32;;;;;;;74.00;51.37;;;6.90;99.90;;;;;;5093160;28;20963;-77
2021/04/11 04:53:10;;;;;;;81.20;50.13;;;6.90;99.90;;;;;;5093655;28;20484;-76
2021/04/11 04:55:39;;;;;;;68.50;48.50;;;6.90;99.90;;;;;;5094043;28;20450;-77
2021/04/11 04:58:23;;;;;;;81.13;51.93;;;6.90;99.90;;;;;;5092706;28;20411;-77
2021/04/11 05:00:54;;;;;;;81.00;52.07;;;7.00;99.90;;;;;;5093257;28;20822;-77
2021/04/11 05:03:32;;;;;;;92.47;54.20;;;7.00;99.90;;;;;;5092943;28;20841;-77
2021/04/11 05:06:21;;;;;;;80.80;52.17;;;7.00;99.90;;;;;;5093511;28;20415;-78
2021/04/11 05:08:57;;;;;;;72.37;50.43;;;7.00;99.90;;;;;;5094120;28;20464;-78
2021/04/11 05:11:36;;;;;;;72.13;49.90;;;7.00;99.90;;;;;;5093219;28;20415;-78
2021/04/11 05:14:15;;;;;;;75.13;50.97;;;7.00;99.90;;;;;;5093365;28;20485;-78
2021/04/11 05:16:47;;;;;;;76.33;50.47;;;7.00;99.90;;;;;;5093027;28;20427;-78
2021/04/11 05:19:23;;;;;;;75.03;51.47;;;7.10;99.90;;;;;;5094509;28;20403;-77
2021/04/11 05:22:02;;;;;;;78.23;52.27;;;7.10;99.90;;;;;;5093482;28;20428;-78
2021/04/11 05:24:36;;;;;;;77.13;52.03;;;7.10;99.90;;;;;;5094345;28;20475;-78
2021/04/11 05:27:04;;;;;;;80.30;53.37;;;7.20;99.90;;;;;;5093565;28;20872;-78
2021/04/11 05:29:54;;;;;;;73.13;48.93;;;7.20;99.90;;;;;;5096259;28;20407;-78
2021/04/11 05:32:20;;;;;;;67.93;48.37;;;7.20;99.90;;;;;;5099276;28;20804;-77
2021/04/11 05:34:46;;;;;;;71.37;49.57;;;7.20;99.90;;;;;;5094352;28;20800;-77
2021/04/11 05:37:36;;;;;;;75.00;51.53;;;7.20;99.90;;;;;;5094033;28;20408;-77
2021/04/11 05:40:21;;;;;;;66.43;48.37;;;7.20;99.90;;;;;;5093361;28;20165;-77
2021/04/11 05:42:58;;;;;;;74.60;49.47;;;7.20;99.90;;;;;;5093959;28;20434;-76
2021/04/11 05:45:37;;;;;;;69.97;50.27;;;7.30;99.90;;;;;;5095733;28;20407;-77
2021/04/11 05:48:31;;;;;;;63.27;48.43;;;7.30;99.90;;;;;;5095859;28;20464;-77
2021/04/11 05:51:04;;;;;;;75.07;51.30;;;7.30;99.90;;;;;;5097737;28;20411;-77
2021/04/11 05:53:41;;;;;;;75.47;51.00;;;7.30;99.90;;;;;;5099855;28;20435;-77
2021/04/11 05:56:17;;;;;;;73.17;49.30;;;7.30;99.90;;;;;;5098636;28;20926;-77
2021/04/11 05:58:50;;;;;;;77.87;50.47;;;7.30;99.90;;;;;;5098559;28;20875;-77
2021/04/11 06:01:21;;;;;;;74.67;50.73;;;7.40;99.90;;;;;;5097084;28;20819;-77
2021/04/11 06:04:00;;;;;;;76.07;52.20;;;7.30;99.90;;;;;;5097662;28;20499;-77
2021/04/11 06:06:41;;;;;;;69.00;48.67;;;7.20;99.90;;;;;;5097050;28;20546;-77
2021/04/11 06:09:25;;;;;;;73.20;48.80;;;7.30;99.90;;;;;;5092947;28;20456;-77
2021/04/11 06:12:00;;;;;;;70.97;49.30;;;7.30;99.90;;;;;;5092461;28;20422;-77
2021/04/11 06:14:53;;;;;;;73.80;50.13;;;7.20;99.90;;;;;;5092212;28;20481;-77
2021/04/11 06:17:19;;;;;;;82.83;50.10;;;7.30;99.90;;;;;;5091278;28;20473;-77
2021/04/11 06:19:47;;;;;;;66.20;49.03;;;7.30;99.90;;;;;;5092056;28;20407;-78
2021/04/11 06:22:24;;;;;;;72.33;50.10;;;7.30;99.90;;;;;;5091820;28;20197;-78
2021/04/11 06:25:33;;;;;;;71.87;48.53;;;7.40;99.90;;;;;;5092006;28;20396;-78
2021/04/11 06:28:12;;;;;;;75.23;49.57;;;7.40;99.90;;;;;;5027682;28;20499;-78
2021/04/11 06:30:40;;;;;;;72.40;50.50;;;7.50;99.90;;;;;;5091661;28;20407;-77
2021/04/11 06:33:14;;;;;;;74.40;49.90;;;7.60;99.90;;;;;;5092717;28;20476;-78
2021/04/11 06:35:51;;;;;;;65.50;47.20;;;7.70;99.90;;;;;;5096195;28;20455;-78
2021/04/11 06:38:22;;;;;;;66.87;47.20;;;7.70;99.90;;;;;;5095750;28;20502;-78
2021/04/11 06:41:06;;;;;;;63.00;45.57;;;7.80;99.90;;;;;;5096011;28;20458;-78
2021/04/11 06:43:56;;;;;;;62.20;43.17;;;7.80;99.90;;;;;;5094617;28;20466;-78
2021/04/11 06:46:43;;;;;;;58.67;43.93;;;7.70;99.90;;;;;;5095804;28;20400;-78
2021/04/11 06:49:52;;;;;;;62.03;45.57;;;7.80;99.90;;;;;;5095666;28;20411;-77
2021/04/11 06:52:35;;;;;;;60.27;44.20;;;7.90;99.90;;;;;;5094294;28;20552;-77
2021/04/11 06:55:33;;;;;;;66.10;47.50;;;7.90;99.90;;;;;;5095519;28;20477;-77
2021/04/11 06:58:37;;;;;;;61.20;43.00;;;7.90;99.90;;;;;;5095267;28;20426;-77
2021/04/11 07:01:33;;;;;;;57.60;42.80;;;8.00;99.90;;;;;;5095191;28;20832;-77
2021/04/11 07:04:27;;;;;;;56.10;41.60;;;8.20;99.90;;;;;;5097823;28;20539;-77
2021/04/11 07:06:52;;;;;;;55.60;43.03;;;8.30;99.90;;;;;;5095268;28;20407;-77
2021/04/11 07:09:51;;;;;;;55.80;42.53;;;8.50;99.90;;;;;;5094892;28;20414;-77
2021/04/11 07:12:54;;;;;;;48.10;40.33;;;8.70;99.90;;;;;;5095541;28;20268;-77
2021/04/11 07:15:29;;;;;;;44.47;37.43;;;9.30;99.90;;;;;;5095382;28;20545;-78
2021/04/11 07:18:15;;;;;;;46.30;35.53;;;9.90;99.90;;;;;;5095027;28;20390;-77
2021/04/11 07:21:31;;;;;;;45.07;34.60;;;9.90;99.90;;;;;;5095366;28;20407;-78
2021/04/11 07:24:16;;;;;;;40.47;32.10;;;9.90;99.90;;;;;;5095089;28;20395;-77
2021/04/11 07:26:55;;;;;;;44.73;34.07;;;9.80;99.90;;;;;;5094649;28;20464;-78
2021/04/11 07:29:40;;;;;;;39.07;31.90;;;10.00;99.90;;;;;;5094856;28;20906;-77
2021/04/11 07:32:26;;;;;;;38.97;32.77;;;9.90;99.90;;;;;;5094657;28;20416;-77
2021/04/11 07:35:13;;;;;;;40.10;33.00;;;10.10;99.90;;;;;;5094930;28;20458;-77
2021/04/11 07:38:00;;;;;;;37.80;29.40;;;11.00;99.90;;;;;;5094549;28;20407;-78
2021/04/11 07:40:44;;;;;;;39.50;29.97;;;12.10;99.90;;;;;;5094841;28;20456;-78
2021/04/11 07:43:24;;;;;;;36.80;30.20;;;12.40;99.90;;;;;;5094598;28;20419;-78
2021/04/11 07:46:20;;;;;;;32.70;29.30;;;12.10;99.90;;;;;;5094911;28;20410;-78
2021/04/11 07:49:12;;;;;;;33.20;27.90;;;12.60;99.90;;;;;;5094841;28;20400;-78
2021/04/11 07:52:13;;;;;;;40.33;29.73;;;12.10;99.90;;;;;;5094856;28;20424;-78
2021/04/11 07:54:57;;;;;;;34.07;30.57;;;12.20;99.90;;;;;;5094702;28;20544;-78
2021/04/11 07:57:39;;;;;;;31.27;27.30;;;12.50;99.90;;;;;;5093106;28;20411;-78
2021/04/11 08:00:26;;;;;;;32.37;27.60;;;12.50;99.90;;;;;;5093815;28;20901;-78
2021/04/11 08:03:21;;;;;;;33.17;28.07;;;12.20;99.90;;;;;;5094554;28;20434;-78
2021/04/11 08:06:24;;;;;;;32.20;27.27;;;12.40;99.90;;;;;;5076751;28;20441;-77
2021/04/11 08:08:55;;;;;;;30.03;26.73;;;12.40;99.90;;;;;;5094170;28;20810;-77
2021/04/11 08:11:44;;;;;;;31.90;25.90;;;12.40;99.90;;;;;;5094301;28;20412;-77
2021/04/11 08:14:47;;;;;;;32.63;24.50;;;12.30;99.90;;;;;;5094156;28;20852;-77
2021/04/11 08:17:53;;;;;;;29.67;25.07;;;12.60;99.90;;;;;;5093981;28;20403;-77
2021/04/11 08:20:46;;;;;;;29.97;26.60;;;12.90;99.90;;;;;;5093866;28;20404;-78
2021/04/11 08:23:25;;;;;;;34.93;26.00;;;12.90;99.90;;;;;;5095962;28;20840;-78
2021/04/11 08:26:09;;;;;;;29.53;25.80;;;12.70;99.90;;;;;;5101746;28;20486;-79
2021/04/11 08:29:09;;;;;;;32.20;24.67;;;12.60;99.90;;;;;;5100840;28;20747;-78
2021/04/11 08:32:01;;;;;;;28.37;25.37;;;12.60;99.90;;;;;;5101060;28;20423;-78
2021/04/11 08:34:55;;;;;;;26.67;23.83;;;12.90;99.90;;;;;;5101092;28;20447;-78
2021/04/11 08:37:53;;;;;;;30.33;22.10;;;12.90;99.90;;;;;;5100797;28;20421;-79
2021/04/11 08:40:29;;;;;;;24.57;21.37;;;13.20;99.90;;;;;;5100679;28;20402;-79
2021/04/11 08:43:00;;;;;;;23.43;20.93;;;13.30;99.90;;;;;;5100770;28;20416;-79
2021/04/11 08:45:56;;;;;;;26.23;20.07;;;13.10;99.90;;;;;;5101222;28;20486;-79
2021/04/11 08:48:52;;;;;;;23.37;21.10;;;13.40;99.90;;;;;;5099848;28;20411;-80
2021/04/11 08:51:36;;;;;;;26.70;20.53;;;13.60;99.90;;;;;;5100178;28;20659;-78
2021/04/11 08:54:07;;;;;;;26.50;21.30;;;13.90;99.90;;;;;;5100734;28;20412;-80
2021/04/11 08:56:57;;;;;;;24.30;21.17;;;13.80;99.90;;;;;;5099892;28;20497;-78
2021/04/11 08:59:48;;;;;;;22.43;19.67;;;13.80;99.90;;;;;;5101654;28;20741;-79
2021/04/11 09:02:45;;;;;;;21.87;18.40;;;13.70;99.90;;;;;;5103260;28;20824;-78
2021/04/11 09:05:34;;;;;;;21.70;18.50;;;13.30;99.90;;;;;;5107887;28;20416;-79
2021/04/11 09:08:18;;;;;;;28.20;20.70;;;13.40;99.90;;;;;;5099943;28;20420;-79
2021/04/11 09:10:57;;;;;;;20.90;18.70;;;13.80;99.90;;;;;;5101286;28;20437;-79
2021/04/11 09:13:54;;;;;;;21.00;18.57;;;13.90;99.90;;;;;;5100264;28;20447;-79
2021/04/11 09:16:56;;;;;;;23.70;18.87;;;14.20;99.90;;;;;;5104875;28;20487;-78
2021/04/11 09:19:59;;;;;;;22.93;18.30;;;14.60;99.90;;;;;;5109712;28;20427;-78
2021/04/11 09:22:56;;;;;;;20.10;17.97;;;15.20;99.90;;;;;;5107213;28;20419;-78
2021/04/11 09:25:26;;;;;;;20.10;18.10;;;15.40;99.90;;;;;;5103557;28;20413;-78
2021/04/11 09:28:06;;;;;;;23.70;17.43;;;15.40;99.90;;;;;;5102269;28;20468;-78
2021/04/11 09:30:49;;;;;;;19.70;17.20;;;15.60;99.90;;;;;;5096274;28;20467;-77
2021/04/11 09:33:46;;;;;;;22.33;17.63;;;15.70;99.90;;;;;;5097945;28;20436;-78
2021/04/11 09:36:31;;;;;;;19.27;17.27;;;15.20;99.90;;;;;;5098251;28;20482;-79
2021/04/11 09:39:22;;;;;;;18.60;16.70;;;15.20;99.90;;;;;;5101299;28;20400;-80
2021/04/11 09:42:12;;;;;;;16.43;14.73;;;15.80;99.90;;;;;;5100780;28;20477;-79
2021/04/11 09:44:56;;;;;;;17.67;14.73;;;15.30;99.90;;;;;;5100401;28;20399;-79
2021/04/11 09:47:52;;;;;;;20.30;15.77;;;15.00;99.90;;;;;;5101371;28;20920;-79
2021/04/11 09:50:29;;;;;;;17.33;13.97;;;14.80;99.90;;;;;;5100542;28;20408;-79
2021/04/11 09:53:40;;;;;;;18.30;16.00;;;14.80;99.90;;;;;;5100233;28;20440;-79
2021/04/11 09:56:33;;;;;;;20.60;15.30;;;14.70;99.90;;;;;;5100720;28;20466;-77
2021/04/11 09:59:49;;;;;;;19.93;13.40;;;14.80;99.90;;;;;;5096498;28;20396;-78
2021/04/11 10:02:37;;;;;;;23.53;14.47;;;14.70;99.90;;;;;;5061988;28;20424;-78
2021/04/11 10:05:08;;;;;;;16.17;14.40;;;14.90;99.90;;;;;;5096008;28;20399;-78
2021/04/11 10:08:00;;;;;;;17.70;15.77;;;14.90;99.90;;;;;;5096158;28;20498;-77
2021/04/11 10:11:05;;;;;;;15.17;13.50;;;15.00;99.90;;;;;;5096299;28;20495;-78
2021/04/11 10:13:54;;;;;;;19.43;15.03;;;14.90;99.90;;;;;;5092160;28;20571;-78
2021/04/11 10:16:44;;;;;;;17.50;14.60;;;15.00;99.90;;;;;;5095259;28;20978;-78
2021/04/11 10:19:32;;;;;;;21.07;15.87;;;15.00;99.90;;;;;;5096027;28;20412;-78
2021/04/11 10:22:37;;;;;;;18.13;14.20;;;15.20;99.90;;;;;;5097138;28;20444;-77
2021/04/11 10:25:14;;;;;;;16.50;14.47;;;15.00;99.90;;;;;;5096254;28;20821;-77
2021/04/11 10:28:04;;;;;;;15.00;12.90;;;15.50;99.90;;;;;;5094685;28;20404;-77
2021/04/11 10:30:32;;;;;;;15.67;13.90;;;15.30;99.90;;;;;;5091730;28;20479;-78
2021/04/11 10:33:16;;;;;;;15.67;13.53;;;15.60;99.90;;;;;;5091717;28;20425;-77
2021/04/11 10:35:51;;;;;;;15.77;14.20;;;15.70;99.90;;;;;;5091332;28;20597;-76
2021/04/11 10:38:26;;;;;;;19.13;14.47;;;15.90;99.90;;;;;;5091218;28;20964;-77
2021/04/11 10:41:16;;;;;;;14.77;13.27;;;16.10;99.90;;;;;;5091382;28;20410;-76
2021/04/11 10:44:10;;;;;;;14.70;13.20;;;16.50;99.90;;;;;;5090242;28;20498;-77
2021/04/11 10:47:13;;;;;;;21.60;14.07;;;16.50;99.90;;;;;;5091532;28;20499;-77
2021/04/11 10:49:57;;;;;;;15.77;14.13;;;16.10;99.90;;;;;;5091378;28;20403;-77
2021/04/11 10:52:38;;;;;;;18.10;14.17;;;16.10;99.90;;;;;;5091200;28;20893;-77
2021/04/11 10:55:22;;;;;;;15.50;13.80;;;16.60;99.90;;;;;;5089818;28;20499;-77
2021/04/11 10:58:44;;;;;;;14.87;13.33;;;17.00;99.90;;;;;;5091128;28;20408;-77
2021/04/11 11:01:23;;;;;;;14.30;12.90;;;17.20;99.90;;;;;;5046057;28;20433;-77
2021/04/11 11:04:18;;;;;;;18.03;13.80;;;17.40;99.90;;;;;;5091508;28;20745;-77
2021/04/11 11:06:56;;;;;;;16.83;13.77;;;17.70;99.90;;;;;;5091482;28;20434;-77
2021/04/11 11:09:36;;;;;;;17.30;13.33;;;17.60;99.90;;;;;;5091134;28;20409;-77
2021/04/11 11:12:31;;;;;;;13.50;12.10;;;17.50;99.90;;;;;;5091411;28;20823;-77
2021/04/11 11:15:20;;;;;;;14.47;11.97;;;17.50;99.90;;;;;;5090916;28;20985;-77
2021/04/11 11:17:54;;;;;;;13.13;11.80;;;17.80;99.90;;;;;;5090849;28;20890;-77
2021/04/11 11:20:45;;;;;;;15.30;11.10;;;17.80;99.90;;;;;;5092364;28;20501;-77
2021/04/11 11:23:30;;;;;;;12.90;11.00;;;18.10;99.90;;;;;;5095140;28;20417;-77
2021/04/11 11:26:32;;;;;;;12.70;11.50;;;17.70;99.90;;;;;;5094893;28;20501;-77
2021/04/11 11:29:15;;;;;;;12.43;11.13;;;18.00;99.90;;;;;;5094370;28;20430;-76
2021/04/11 11:31:59;;;;;;;11.93;10.33;;;17.90;99.90;;;;;;5094719;28;20515;-77
2021/04/11 11:34:50;;;;;;;11.00;9.83;;;18.00;99.90;;;;;;5093328;28;20454;-76
2021/04/11 11:37:34;;;;;;;12.40;10.03;;;18.40;99.90;;;;;;5093009;28;20876;-77
2021/04/11 11:40:30;;;;;;;12.13;10.17;;;18.60;99.90;;;;;;5094218;28;20422;-77
2021/04/11 11:43:14;;;;;;;12.07;9.57;;;18.60;99.90;;;;;;5094600;28;20476;-77
2021/04/11 11:45:58;;;;;;;11.53;9.83;;;18.60;99.90;;;;;;5094087;28;20460;-77
2021/04/11 11:48:49;;;;;;;11.87;9.50;;;18.70;99.90;;;;;;5093878;28;20418;-77
2021/04/11 11:51:36;;;;;;;11.20;8.27;;;18.80;99.90;;;;;;5094066;28;20470;-77
2021/04/11 11:54:25;;;;;;;9.93;8.93;;;18.70;99.90;;;;;;5094219;28;20404;-77
2021/04/11 11:57:28;;;;;;;11.90;8.77;;;18.70;99.90;;;;;;5093843;28;20408;-77
2021/04/11 12:00:26;;;;;;;10.80;8.57;;;18.70;99.90;;;;;;5093047;28;20423;-77
2021/04/11 12:03:21;;;;;;;14.43;9.23;;;18.80;99.90;;;;;;5094005;28;20439;-77
2021/04/11 12:06:24;;;;;;;14.77;9.73;;;18.70;99.90;;;;;;5094225;28;20417;-78
2021/04/11 12:09:05;;;;;;;8.60;7.80;;;18.80;99.90;;;;;;5093902;28;20802;-77
2021/04/11 12:11:51;;;;;;;11.33;8.20;;;19.20;99.90;;;;;;5094349;28;20578;-77
2021/04/11 12:14:55;;;;;;;8.13;6.60;;;19.30;99.90;;;;;;5093684;28;20791;-77
2021/04/11 12:17:54;;;;;;;9.20;7.13;;;19.40;99.90;;;;;;5093670;28;20460;-78
2021/04/11 12:20:22;;;;;;;8.53;6.50;;;19.40;99.90;;;;;;5093843;28;20397;-77
2021/04/11 12:22:57;;;;;;;7.73;6.53;;;19.60;99.90;;;;;;5093719;28;20423;-78
2021/04/11 12:25:25;;;;;;;8.87;6.67;;;19.70;99.90;;;;;;5093660;28;20484;-78
2021/04/11 12:27:52;;;;;;;5.83;4.97;;;19.50;99.90;;;;;;5093078;28;20396;-78
2021/04/11 12:30:33;;;;;;;7.10;5.80;;;19.30;99.90;;;;;;5093435;28;20413;-78
2021/04/11 12:33:03;;;;;;;8.77;5.20;;;19.40;99.90;;;;;;5093381;28;20465;-77
2021/04/11 12:35:43;;;;;;;7.07;5.50;;;19.60;99.50;;;;;;5093256;28;20552;-77
2021/04/11 12:38:37;;;;;;;6.23;5.60;;;19.70;99.60;;;;;;5092968;28;20404;-77
2021/04/11 12:41:12;;;;;;;7.13;5.20;;;19.90;99.20;;;;;;5093244;28;20988;-78
2021/04/11 12:43:57;;;;;;;12.00;6.27;;;20.20;99.00;;;;;;5093288;28;20892;-78
2021/04/11 12:46:47;;;;;;;7.43;5.47;;;20.30;97.70;;;;;;5094775;28;20409;-78
2021/04/11 12:49:17;;;;;;;6.33;4.23;;;20.20;97.30;;;;;;5098235;28;20396;-78
2021/04/11 12:52:04;;;;;;;6.37;5.67;;;20.20;97.00;;;;;;5095882;28;20416;-78
2021/04/11 12:54:37;;;;;;;11.83;6.00;;;20.10;97.30;;;;;;5093846;28;20812;-78
2021/04/11 12:57:08;;;;;;;7.13;5.93;;;19.90;97.80;;;;;;5092608;28;20400;-78
2021/04/11 12:59:52;;;;;;;7.00;5.57;;;19.90;97.90;;;;;;5092991;28;20433;-78
2021/04/11 13:02:27;;;;;;;8.10;6.13;;;19.70;98.00;;;;;;5093498;28;20510;-77
2021/04/11 13:05:04;;;;;;;6.97;5.50;;;20.10;97.50;;;;;;5094723;28;20438;-78
2021/04/11 13:07:51;;;;;;;6.50;4.67;;;20.00;96.70;;;;;;5094657;28;20403;-78
2021/04/11 13:10:26;;;;;;;10.10;5.70;;;20.00;97.40;;;;;;5062181;28;20468;-78
2021/04/11 13:13:17;;;;;;;5.87;4.87;;;19.90;96.40;;;;;;5093502;28;20450;-78
2021/04/11 13:16:12;;;;;;;5.60;5.10;;;20.10;96.20;;;;;;5090949;28;20462;-78
2021/04/11 13:18:45;;;;;;;5.07;4.30;;;19.80;96.60;;;;;;5092264;28;20403;-78
2021/04/11 13:21:25;;;;;;;13.40;5.67;;;20.10;96.10;;;;;;5092530;28;20407;-79
2021/04/11 13:24:25;;;;;;;4.80;3.93;;;20.40;96.20;;;;;;5092635;28;20486;-79
2021/04/11 13:27:00;;;;;;;5.00;4.00;;;20.80;95.20;;;;;;5081287;28;20510;-78
2021/04/11 13:29:39;;;;;;;4.67;4.27;;;20.60;95.70;;;;;;5092298;28;20429;-78
2021/04/11 13:32:18;;;;;;;7.03;4.67;;;20.60;95.50;;;;;;5092064;28;20954;-79
2021/04/11 13:34:55;;;;;;;5.80;5.27;;;20.40;95.60;;;;;;5090575;28;20451;-78
2021/04/11 13:37:21;;;;;;;4.40;4.00;;;20.60;95.00;;;;;;5092130;28;20467;-78
2021/04/11 13:39:50;;;;;;;5.90;4.53;;;20.70;94.90;;;;;;5092416;28;20405;-78
2021/04/11 13:42:32;;;;;;;3.93;3.23;;;20.50;95.00;;;;;;5091935;28;20424;-78